createdAt,value
2023-10-20T00:03:28.503Z,8.4
2023-10-20T00:09:20.328Z,8.4
2023-10-20T00:15:12.219Z,8.3
2023-10-20T00:21:03.797Z,8.3
2023-10-20T00:26:55.443Z,8.3
2023-10-20T00:32:47.904Z,8.3
2023-10-20T00:38:39.290Z,8.3
2023-10-20T00:44:31.482Z,8.2
2023-10-20T00:50:24.158Z,8.1
2023-10-20T00:56:16.645Z,8.1
2023-10-20T01:02:08.577Z,8.1
2023-10-20T01:08:01.604Z,8
2023-10-20T01:13:53.923Z,7.9
2023-10-20T01:19:45.734Z,7.9
2023-10-20T01:25:37.953Z,7.8
2023-10-20T01:31:29.061Z,7.8
2023-10-20T01:37:21.223Z,7.6
2023-10-20T01:43:12.827Z,7.5
2023-10-20T01:49:05.865Z,7.4
2023-10-20T01:54:58.328Z,7.3
2023-10-20T02:00:49.708Z,7.2
2023-10-20T02:06:42.767Z,7.1
2023-10-20T02:12:19.719Z,6.9
2023-10-20T02:18:12.965Z,6.8
2023-10-20T02:24:05.117Z,6.7
2023-10-20T02:29:56.669Z,6.6
2023-10-20T02:35:49.378Z,6.4
2023-10-20T02:41:40.801Z,6.4
2023-10-20T02:47:32.555Z,6.3
2023-10-20T02:53:25.105Z,6.1
2023-10-20T02:59:17.139Z,6.1
2023-10-20T03:05:10.849Z,5.9
2023-10-20T03:11:02.891Z,5.8
2023-10-20T03:16:54.521Z,5.8
2023-10-20T03:22:47.992Z,5.6
2023-10-20T03:28:41.421Z,5.5
2023-10-20T03:34:33.666Z,5.5
2023-10-20T03:40:26.227Z,5.4
2023-10-20T03:46:18.126Z,5.4
2023-10-20T03:52:10.408Z,5.3
2023-10-20T03:58:02.430Z,5.3
2023-10-20T04:03:55.356Z,5.2
2023-10-20T04:09:31.824Z,5.1
2023-10-20T04:15:08.636Z,5.1
2023-10-20T04:20:48.129Z,5
2023-10-20T04:26:24.190Z,5
2023-10-20T04:32:00.758Z,5
2023-10-20T04:37:38.524Z,5
2023-10-20T04:43:15.385Z,5
2023-10-20T04:48:52.901Z,5.1
2023-10-20T04:54:30.248Z,5.1
2023-10-20T04:59:51.860Z,5.1
2023-10-20T05:05:31.752Z,5.1
2023-10-20T05:11:07.844Z,5.3
2023-10-20T05:16:44.006Z,5.6
2023-10-20T05:22:20.511Z,6.1
2023-10-20T05:27:56.121Z,7.1
2023-10-20T05:33:35.663Z,8.6
2023-10-20T05:38:56.463Z,10.7
2023-10-20T05:44:17.452Z,13.4
2023-10-20T05:49:39.149Z,16.4
2023-10-20T05:55:00.161Z,19.3
2023-10-20T06:00:21.154Z,21.9
2023-10-20T06:06:14.172Z,24.1
2023-10-20T06:11:36.153Z,26.6
2023-10-20T06:16:56.456Z,30.1
2023-10-20T06:22:47.217Z,34.4
2023-10-20T06:28:08.220Z,37.9
2023-10-20T06:33:30.354Z,41.1
2023-10-20T06:39:07.431Z,45
2023-10-20T06:44:44.350Z,49
2023-10-20T06:50:21.832Z,52.4
2023-10-20T06:57:09.480Z,47.3
2023-10-20T07:03:01.597Z,37.5
2023-10-20T07:08:53.335Z,36.5
2023-10-20T07:14:50.587Z,37.9
2023-10-20T07:20:43.286Z,39.1
2023-10-20T07:26:37.577Z,39.1
2023-10-20T07:32:36.182Z,39.2
2023-10-20T07:38:29.251Z,39.6
2023-10-20T07:44:21.664Z,40.6
2023-10-20T07:50:16.101Z,46.6
2023-10-20T07:55:52.454Z,55.1
2023-10-20T08:01:46.583Z,52.3
2023-10-20T08:07:48.323Z,39.9
2023-10-20T08:13:42.162Z,42.1
2023-10-20T08:19:35.576Z,48.1
2023-10-20T08:25:28.070Z,50.6
2023-10-20T08:31:20.952Z,48.8
2023-10-20T08:37:14.157Z,51.6
2023-10-20T08:43:14.213Z,55.5
2023-10-20T08:48:51.992Z,56.8
2023-10-20T08:54:32.219Z,57.4
2023-10-20T09:00:29.677Z,60.1
2023-10-20T09:06:39.329Z,62.8
2023-10-20T09:12:34.902Z,64.6
2023-10-20T09:18:30.520Z,65.7
2023-10-20T09:24:25.363Z,67.1
2023-10-20T09:29:51.150Z,68.4
2023-10-20T09:35:49.510Z,68.9
2023-10-20T09:41:26.210Z,67.4
2023-10-20T09:47:30.175Z,63.3
2023-10-20T09:53:28.646Z,61.9
2023-10-20T09:59:24.647Z,59.9
2023-10-20T10:05:19.010Z,60.8
2023-10-20T10:11:11.810Z,58.1
2023-10-20T10:17:04.370Z,53.1
2023-10-20T10:22:58.993Z,52.6
2023-10-20T10:29:05.338Z,56.7
2023-10-20T10:35:17.810Z,70.8
2023-10-20T10:41:12.827Z,70.6
2023-10-20T10:47:09.460Z,67.1
2023-10-20T10:53:09.823Z,68.8
2023-10-20T10:59:06.283Z,69
2023-10-20T11:05:01.641Z,69.4
2023-10-20T11:10:56.750Z,68.4
2023-10-20T11:16:50.863Z,69.3
2023-10-20T11:22:49.590Z,69.9
2023-10-20T11:28:42.478Z,69.1
2023-10-20T11:34:46.375Z,69.7
2023-10-20T11:40:38.646Z,68.2
2023-10-20T11:46:30.027Z,67.2
2023-10-20T11:52:25.993Z,66.9
2023-10-20T11:58:20.611Z,66.2
2023-10-20T12:04:13.252Z,66
2023-10-20T12:10:05.423Z,65.6
2023-10-20T12:15:41.952Z,65.3
2023-10-20T12:21:34.770Z,64
2023-10-20T12:27:13.868Z,63.8
2023-10-20T12:33:08.566Z,64
2023-10-20T12:39:00.396Z,62.9
2023-10-20T12:44:52.870Z,63.4
2023-10-20T12:50:30.777Z,65.3
2023-10-20T12:56:07.256Z,65.3
2023-10-20T13:01:44.706Z,64.9
2023-10-20T13:07:34.810Z,64.7
2023-10-20T13:13:12.558Z,62.6
2023-10-20T13:19:06.499Z,61.9
2023-10-20T13:24:43.152Z,62.3
2023-10-20T13:30:34.821Z,61.2
2023-10-20T13:36:33.367Z,59.6
2023-10-20T13:42:41.703Z,58.1
2023-10-20T13:48:34.438Z,56.3
2023-10-20T13:54:27.457Z,55.6
2023-10-20T14:00:19.302Z,54.3
2023-10-20T14:05:59.380Z,52.6
2023-10-20T14:11:35.809Z,50.9
2023-10-20T14:17:12.002Z,49.5
2023-10-20T14:22:48.316Z,47.9
2023-10-20T14:28:24.075Z,46.1
2023-10-20T14:34:00.685Z,44.1
2023-10-20T14:39:36.737Z,42.4
2023-10-20T14:45:16.246Z,41.1
2023-10-20T14:50:53.343Z,39.9
2023-10-20T14:56:44.585Z,39
2023-10-20T15:02:22.097Z,37.9
2023-10-20T15:08:32.335Z,36.8
2023-10-20T15:14:25.522Z,35.8
2023-10-20T15:20:21.508Z,34.7
2023-10-20T15:26:24.807Z,33.6
2023-10-20T15:32:18.475Z,32.6
2023-10-20T15:38:10.909Z,31.6
2023-10-20T15:44:31.660Z,30.5
2023-10-20T15:50:24.462Z,29.5
2023-10-20T15:56:15.751Z,28.6
2023-10-20T16:02:08.352Z,27.7
2023-10-20T16:08:04.008Z,27
2023-10-20T16:13:39.740Z,26.4
2023-10-20T16:19:31.903Z,25.9
2023-10-20T16:25:23.227Z,25.2
2023-10-20T16:31:17.268Z,24.5
2023-10-20T16:37:09.588Z,24.1
2023-10-20T16:43:00.708Z,23.7
2023-10-20T16:48:21.864Z,23.4
2023-10-20T16:54:13.541Z,23.1
2023-10-20T17:00:04.355Z,22.9
2023-10-20T17:05:57.878Z,22.8
2023-10-20T17:11:36.597Z,22.7
2023-10-20T17:17:29.853Z,22.6
2023-10-20T17:23:21.980Z,22.7
2023-10-20T17:29:13.936Z,22.6
2023-10-20T17:35:06.798Z,22.6
2023-10-20T17:40:59.341Z,22.6
2023-10-20T17:46:54.703Z,22.5
2023-10-20T17:52:46.788Z,22.3
2023-10-20T17:58:40.001Z,22.3
2023-10-20T18:04:37.782Z,22.2
2023-10-20T18:10:35.382Z,22.2
2023-10-20T18:16:29.304Z,22.3
2023-10-20T18:22:23.565Z,22.3
2023-10-20T18:28:19.638Z,22.3
2023-10-20T18:34:12.793Z,22.4
2023-10-20T18:40:05.220Z,22.2
2023-10-20T18:45:43.640Z,21.9
2023-10-20T18:51:38.938Z,21.9
2023-10-20T18:57:31.713Z,21.6
2023-10-20T19:03:26.216Z,21.6
2023-10-20T19:09:04.308Z,21.6
2023-10-20T19:15:00.104Z,21.2
2023-10-20T19:20:55.435Z,20.8
2023-10-20T19:26:52.270Z,20.2
2023-10-20T19:32:44.917Z,19.7
2023-10-20T19:38:38.536Z,19.3
2023-10-20T19:44:31.839Z,18.9
2023-10-20T19:50:25.910Z,18.6
2023-10-20T19:56:17.655Z,18.3
2023-10-20T20:02:11.443Z,17.9
2023-10-20T20:08:06.217Z,17.7
2023-10-20T20:13:58.493Z,17.4
2023-10-20T20:19:39.352Z,17.1
2023-10-20T20:25:15.573Z,16.9
2023-10-20T20:31:08.206Z,16.8
2023-10-20T20:37:00.290Z,16.6
2023-10-20T20:42:53.034Z,16.5
2023-10-20T20:48:30.661Z,16.3
2023-10-20T20:54:30.919Z,16.1
2023-10-20T21:00:23.206Z,15.9
2023-10-20T21:06:04.355Z,15.7
2023-10-20T21:11:39.736Z,15.7
2023-10-20T21:17:31.817Z,15.5
2023-10-20T21:23:09.353Z,15.4
2023-10-20T21:28:45.036Z,15.4
2023-10-20T21:34:21.461Z,15.4
2023-10-20T21:40:14.630Z,15.5
2023-10-20T21:45:50.624Z,15.5
2023-10-20T21:51:27.211Z,15.6
2023-10-20T21:57:03.044Z,15.5
2023-10-20T22:02:52.505Z,15.4
2023-10-20T22:08:45.479Z,15.4
2023-10-20T22:14:47.976Z,15.2
2023-10-20T22:20:24.828Z,15.1
2023-10-20T22:26:16.515Z,15
2023-10-20T22:32:11.361Z,14.9
2023-10-20T22:37:47.874Z,14.9
2023-10-20T22:43:40.363Z,14.8
2023-10-20T22:49:18.026Z,14.8
2023-10-20T22:55:11.891Z,14.9
2023-10-20T23:00:33.494Z,14.8
2023-10-20T23:06:11.035Z,14.8
2023-10-20T23:11:47.810Z,14.7
2023-10-20T23:17:39.755Z,14.7
2023-10-20T23:23:00.809Z,14.6
2023-10-20T23:28:21.049Z,14.6
2023-10-20T23:33:42.378Z,14.6
2023-10-20T23:39:35.055Z,14.6
2023-10-20T23:45:11.720Z,14.7
2023-10-20T23:50:48.947Z,14.7
2023-10-20T23:56:24.929Z,14.7
